createdAt,value
2023-05-04T00:00:08.408Z,3.42
2023-05-04T00:05:08.483Z,3.00
2023-05-04T00:10:08.693Z,3.15
2023-05-04T00:15:08.812Z,3.33
2023-05-04T00:20:08.800Z,3.83
2023-05-04T00:25:08.777Z,3.40
2023-05-04T00:30:10.650Z,3.10
2023-05-04T00:35:08.665Z,3.40
2023-05-04T00:40:08.677Z,3.45
2023-05-04T00:45:08.660Z,3.22
2023-05-04T00:50:08.636Z,3.30
2023-05-04T00:55:08.644Z,3.70
2023-05-04T01:00:08.642Z,3.45
2023-05-04T01:05:09.042Z,3.42
2023-05-04T01:10:08.109Z,3.70
2023-05-04T01:15:08.142Z,3.28
2023-05-04T01:20:08.171Z,3.75
2023-05-04T01:25:08.152Z,3.40
2023-05-04T01:30:08.138Z,3.13
2023-05-04T01:35:08.102Z,3.72
2023-05-04T01:40:08.251Z,3.72
2023-05-04T01:45:08.233Z,3.47
2023-05-04T01:50:08.250Z,3.03
2023-05-04T01:55:08.222Z,3.17
2023-05-04T02:00:08.334Z,2.90
2023-05-04T02:05:08.371Z,3.65
2023-05-04T02:10:08.373Z,3.35
2023-05-04T02:15:08.397Z,3.05
2023-05-04T02:20:08.388Z,3.40
2023-05-04T02:25:08.383Z,3.30
2023-05-04T02:30:08.378Z,3.42
2023-05-04T02:35:08.396Z,3.40
2023-05-04T02:40:08.429Z,3.13
2023-05-04T02:45:08.418Z,3.53
2023-05-04T02:50:08.813Z,3.28
2023-05-04T02:55:08.871Z,2.80
2023-05-04T03:00:08.878Z,4.07
2023-05-04T03:05:08.908Z,3.55
2023-05-04T03:10:09.034Z,3.28
2023-05-04T03:15:08.096Z,3.55
2023-05-04T03:20:08.357Z,3.92
2023-05-04T03:25:08.490Z,3.72
2023-05-04T03:30:08.490Z,3.83
2023-05-04T03:35:08.521Z,3.35
2023-05-04T03:40:08.541Z,4.18
2023-05-04T03:45:08.552Z,4.15
2023-05-04T03:50:08.545Z,4.03
2023-05-04T03:55:08.552Z,4.15
2023-05-04T04:00:08.532Z,4.13
2023-05-04T04:05:02.576Z,4.00
2023-05-04T04:10:02.936Z,3.85
2023-05-04T04:15:02.272Z,4.10
2023-05-04T04:20:02.612Z,3.85
2023-05-04T04:25:02.792Z,3.35
2023-05-04T04:30:02.953Z,3.58
2023-05-04T04:35:02.122Z,3.17
2023-05-04T04:40:02.334Z,3.45
2023-05-04T04:45:02.541Z,3.63
2023-05-04T04:50:02.774Z,3.42
2023-05-04T04:55:03.049Z,3.55
2023-05-04T05:00:02.319Z,3.63
2023-05-04T05:05:02.597Z,3.28
2023-05-04T05:10:02.838Z,3.28
2023-05-04T05:15:03.068Z,3.45
2023-05-04T05:20:02.398Z,3.50
2023-05-04T05:25:02.640Z,4.38
2023-05-04T05:30:02.897Z,4.03
2023-05-04T05:35:02.055Z,4.60
2023-05-04T05:40:02.313Z,4.70
2023-05-04T05:45:02.525Z,4.13
2023-05-04T05:50:02.886Z,4.13
2023-05-04T05:55:02.934Z,4.63
2023-05-04T06:00:02.209Z,5.85
2023-05-04T06:05:02.526Z,4.57
2023-05-04T06:10:02.822Z,4.57
2023-05-04T06:15:02.038Z,4.53
2023-05-04T06:20:02.185Z,3.80
2023-05-04T06:25:05.065Z,4.55
2023-05-04T06:30:02.162Z,5.97
2023-05-04T06:35:02.346Z,4.35
2023-05-04T06:40:02.602Z,4.80
2023-05-04T06:45:02.742Z,4.50
2023-05-04T06:50:03.063Z,4.68
2023-05-04T06:55:02.266Z,4.85
2023-05-04T07:00:02.401Z,4.60
2023-05-04T07:05:02.750Z,3.65
2023-05-04T07:10:03.807Z,4.70
2023-05-04T07:15:02.095Z,5.10
2023-05-04T07:20:02.483Z,4.53
2023-05-04T07:25:02.778Z,4.40
2023-05-04T07:30:03.106Z,4.70
2023-05-04T07:35:02.694Z,4.85
2023-05-04T07:40:02.938Z,3.60
2023-05-04T07:45:02.232Z,4.00
2023-05-04T07:50:02.465Z,4.00
2023-05-04T07:55:02.545Z,3.60
2023-05-04T08:00:02.835Z,3.58
2023-05-04T08:05:02.144Z,4.30
2023-05-04T08:10:02.420Z,3.70
2023-05-04T08:15:02.781Z,3.90
2023-05-04T08:20:02.946Z,4.00
2023-05-04T08:25:02.158Z,3.80
2023-05-04T08:30:02.283Z,3.97
2023-05-04T08:35:02.558Z,4.32
2023-05-04T08:40:02.744Z,3.72
2023-05-04T08:45:02.930Z,3.85
2023-05-04T08:50:02.249Z,3.28
2023-05-04T08:55:02.426Z,3.97
2023-05-04T09:00:02.555Z,3.95
2023-05-04T09:05:02.648Z,4.30
2023-05-04T09:10:02.886Z,3.88
2023-05-04T09:15:03.164Z,3.67
2023-05-04T09:20:02.433Z,4.72
2023-05-04T09:25:02.677Z,4.03
2023-05-04T09:30:02.992Z,4.55
2023-05-04T09:35:02.376Z,4.50
2023-05-04T09:40:02.790Z,3.90
2023-05-04T09:45:03.378Z,4.22
2023-05-04T09:50:02.956Z,4.30
2023-05-04T09:55:02.442Z,4.07
2023-05-04T10:00:02.689Z,3.58
2023-05-04T10:05:02.977Z,4.57
2023-05-04T10:10:02.251Z,4.50
2023-05-04T10:15:02.426Z,4.68
2023-05-04T10:20:08.991Z,4.50
2023-05-04T10:25:02.121Z,3.38
2023-05-04T10:30:02.317Z,4.80
2023-05-04T10:35:02.446Z,4.53
2023-05-04T10:40:02.649Z,4.10
2023-05-04T10:45:02.897Z,4.53
2023-05-04T10:50:02.188Z,4.10
2023-05-04T10:55:02.456Z,3.75
2023-05-04T11:00:02.760Z,4.50
2023-05-04T11:05:03.009Z,4.68
2023-05-04T11:10:02.231Z,4.93
2023-05-04T11:15:02.440Z,3.85
2023-05-04T11:20:02.623Z,4.38
2023-05-04T11:25:02.856Z,4.90
2023-05-04T11:30:02.026Z,3.63
2023-05-04T11:35:02.228Z,3.60
2023-05-04T11:40:02.317Z,4.60
2023-05-04T11:45:02.409Z,3.50
2023-05-04T11:50:02.606Z,4.82
2023-05-04T11:55:02.783Z,4.32
2023-05-04T12:00:02.990Z,4.28
2023-05-04T12:05:02.090Z,4.07
2023-05-04T12:10:02.275Z,3.78
2023-05-04T12:15:02.362Z,4.05
2023-05-04T12:20:02.538Z,3.40
2023-05-04T12:25:02.649Z,4.80
2023-05-04T12:30:02.767Z,3.97
2023-05-04T12:35:02.909Z,5.13
2023-05-04T12:40:05.554Z,4.55
2023-05-04T12:45:02.205Z,4.95
2023-05-04T12:50:02.243Z,4.70
2023-05-04T12:55:02.319Z,5.40
2023-05-04T13:00:02.463Z,4.40
2023-05-04T13:05:02.549Z,5.95
2023-05-04T13:10:02.647Z,5.10
2023-05-04T13:15:02.742Z,5.75
2023-05-04T13:20:02.785Z,5.10
2023-05-04T13:25:02.896Z,6.15
2023-05-04T13:30:02.936Z,5.00
2023-05-04T13:35:03.075Z,5.97
2023-05-04T13:40:02.181Z,6.15
2023-05-04T13:45:02.242Z,4.78
2023-05-04T13:50:02.383Z,4.05
2023-05-04T13:55:02.510Z,4.00
2023-05-04T14:00:07.517Z,3.72
2023-05-04T14:05:02.389Z,4.05
2023-05-04T14:10:03.050Z,3.40
2023-05-04T14:15:02.178Z,3.42
2023-05-04T14:20:02.348Z,4.00
2023-05-04T14:25:02.387Z,4.60
2023-05-04T14:30:02.453Z,4.10
2023-05-04T14:35:02.583Z,2.75
2023-05-04T14:40:02.755Z,3.58
2023-05-04T14:45:02.849Z,3.67
2023-05-04T14:50:02.991Z,4.03
2023-05-04T14:55:02.118Z,3.80
2023-05-04T15:00:02.211Z,3.58
2023-05-04T15:05:02.290Z,4.47
2023-05-04T15:10:02.369Z,3.33
2023-05-04T15:15:02.445Z,3.67
2023-05-04T15:20:02.552Z,2.88
2023-05-04T15:25:02.739Z,2.90
2023-05-04T15:30:02.874Z,4.85
2023-05-04T15:35:05.695Z,3.35
2023-05-04T15:40:02.790Z,3.80
2023-05-04T15:45:02.117Z,4.65
2023-05-04T15:50:02.387Z,4.15
2023-05-04T15:55:12.879Z,5.13
2023-05-04T16:00:02.325Z,4.63
2023-05-04T16:05:02.440Z,4.07
2023-05-04T16:10:02.586Z,3.78
2023-05-04T16:15:02.734Z,3.90
2023-05-04T16:20:02.903Z,3.30
2023-05-04T16:25:03.007Z,3.20
2023-05-04T16:30:02.106Z,3.65
2023-05-04T16:35:02.260Z,2.80
2023-05-04T16:40:02.465Z,2.80
2023-05-04T16:45:02.657Z,3.00
2023-05-04T16:50:02.787Z,2.67
2023-05-04T16:55:02.878Z,2.30
2023-05-04T17:00:02.919Z,2.63
2023-05-04T17:05:02.956Z,2.25
2023-05-04T17:10:02.149Z,3.08
2023-05-04T17:15:02.217Z,3.30
2023-05-04T17:20:02.362Z,2.70
2023-05-04T17:25:02.469Z,3.33
2023-05-04T17:30:02.666Z,3.38
2023-05-04T17:35:15.847Z,4.22
2023-05-04T17:40:02.926Z,3.10
2023-05-04T17:45:03.076Z,3.20
2023-05-04T17:50:02.183Z,2.55
2023-05-04T17:55:02.380Z,2.53
2023-05-04T18:00:02.589Z,2.40
2023-05-04T18:05:02.754Z,2.72
2023-05-04T18:10:02.926Z,2.72
2023-05-04T18:15:02.221Z,2.30
2023-05-04T18:20:02.328Z,2.00
2023-05-04T18:25:02.486Z,2.50
2023-05-04T18:30:02.623Z,2.10
2023-05-04T18:35:02.755Z,2.40
2023-05-04T18:40:02.886Z,2.17
2023-05-04T18:45:03.075Z,2.22
2023-05-04T18:50:02.219Z,1.88
2023-05-04T18:55:02.376Z,1.88
2023-05-04T19:00:02.509Z,2.20
2023-05-04T19:05:02.662Z,2.15
2023-05-04T19:10:02.770Z,2.28
2023-05-04T19:15:02.899Z,1.73
2023-05-04T19:20:03.034Z,2.33
2023-05-04T19:25:02.166Z,1.77
2023-05-04T19:30:02.310Z,2.53
2023-05-04T19:35:02.422Z,2.08
2023-05-04T19:40:02.611Z,1.73
2023-05-04T19:45:02.769Z,2.28
2023-05-04T19:50:02.959Z,2.50
2023-05-04T19:55:02.089Z,2.45
2023-05-04T20:00:02.190Z,2.47
2023-05-04T20:05:02.342Z,2.30
2023-05-04T20:10:02.433Z,2.45
2023-05-04T20:15:02.506Z,2.58
2023-05-04T20:20:02.618Z,2.20
2023-05-04T20:25:02.638Z,2.53
2023-05-04T20:30:02.798Z,2.83
2023-05-04T20:35:02.931Z,3.10
2023-05-04T20:40:02.108Z,2.60
2023-05-04T20:45:02.214Z,3.10
2023-05-04T20:50:02.307Z,2.72
2023-05-04T20:55:02.393Z,3.03
2023-05-04T21:00:02.455Z,2.90
2023-05-04T21:05:08.430Z,3.33
2023-05-04T21:10:08.840Z,2.70
2023-05-04T21:15:07.917Z,2.92
2023-05-04T21:20:09.298Z,2.60
2023-05-04T21:25:08.490Z,2.75
2023-05-04T21:30:08.792Z,2.78
2023-05-04T21:35:07.955Z,2.90
2023-05-04T21:40:08.331Z,2.78
2023-05-04T21:45:08.478Z,3.10
2023-05-04T21:50:08.714Z,3.40
2023-05-04T21:55:08.899Z,2.53
2023-05-04T22:00:09.204Z,2.92
2023-05-04T22:05:08.335Z,3.25
2023-05-04T22:10:08.542Z,3.08
2023-05-04T22:15:08.687Z,2.97
2023-05-04T22:20:08.956Z,2.67
2023-05-04T22:25:08.153Z,2.85
2023-05-04T22:30:08.497Z,3.00
2023-05-04T22:35:08.747Z,2.50
2023-05-04T22:40:08.987Z,3.22
2023-05-04T22:45:08.141Z,2.97
2023-05-04T22:50:08.376Z,3.05
2023-05-04T22:55:08.669Z,3.08
2023-05-04T23:01:15.986Z,2.70
2023-05-04T23:05:08.013Z,2.72
2023-05-04T23:10:08.375Z,3.00
2023-05-04T23:15:08.515Z,3.20
2023-05-04T23:20:08.865Z,3.30
2023-05-04T23:25:08.220Z,3.60
2023-05-04T23:30:08.500Z,3.33
2023-05-04T23:35:08.695Z,3.80
2023-05-04T23:40:08.952Z,3.38
2023-05-04T23:45:08.159Z,3.08
2023-05-04T23:50:08.317Z,3.20
2023-05-04T23:55:08.424Z,3.10
